Time;durP1;ratioP1;P1;durP2;ratioP2;P2;SDS_P1;SDS_P2;PMS_P1;PMS_P2;Temp;Humidity;BMP_temperature;BMP_pressure;BME280_temperature;BME280_humidity;BME280_pressure;Samples;Min_cycle;Max_cycle;Signal;HPM_P1;HPM_P2
2021/09/22 00:01:12;;;;;;;0.77;0.45;;;;;;;10.17;100.00;102182.59;5095410;28;20048;-82
2021/09/22 00:03:41;;;;;;;1.45;0.75;;;;;;;10.16;100.00;102164.63;5098505;28;20055;-83
2021/09/22 00:06:14;;;;;;;1.65;0.77;;;;;;;10.21;100.00;102170.19;5095099;28;20051;-84
2021/09/22 00:08:47;;;;;;;1.20;0.70;;;;;;;10.21;100.00;102162.03;5091878;28;20051;-84
2021/09/22 00:11:16;;;;;;;2.38;0.75;;;;;;;10.14;100.00;102169.50;5097332;28;20536;-84
2021/09/22 00:13:49;;;;;;;1.35;0.57;;;;;;;10.13;100.00;102159.66;5102080;28;20032;-83
2021/09/22 00:16:23;;;;;;;0.88;0.68;;;;;;;10.18;100.00;102168.75;5096309;28;20039;-84
2021/09/22 00:18:57;;;;;;;1.40;0.60;;;;;;;10.13;100.00;102171.38;5090858;28;20051;-82
2021/09/22 00:21:30;;;;;;;1.65;0.75;;;;;;;10.10;100.00;102157.44;5115825;27;20052;-82
2021/09/22 00:23:58;;;;;;;1.02;0.68;;;;;;;10.08;100.00;102168.56;5096276;28;20404;-84
2021/09/22 00:26:31;;;;;;;1.90;0.80;;;;;;;10.14;100.00;102167.59;5106797;27;20534;-84
2021/09/22 00:29:05;;;;;;;2.20;0.70;;;;;;;10.18;100.00;102165.22;5095362;28;20051;-84
2021/09/22 00:31:36;;;;;;;1.35;0.65;;;;;;;10.13;100.00;102157.78;5094710;28;20062;-83
2021/09/22 00:34:09;;;;;;;1.13;0.70;;;;;;;10.09;100.00;102155.78;5096185;28;20070;-84
2021/09/22 00:36:42;;;;;;;1.27;0.63;;;;;;;10.07;100.00;102152.47;5091616;28;20060;-84
2021/09/22 00:39:16;;;;;;;1.08;0.60;;;;;;;10.04;100.00;102161.94;5108049;28;20059;-83
2021/09/22 00:41:51;;;;;;;1.52;0.80;;;;;;;10.01;100.00;102156.97;5107387;28;20056;-83
2021/09/22 00:44:26;;;;;;;1.20;0.65;;;;;;;9.94;100.00;102153.56;5101441;28;20043;-83
2021/09/22 00:47:01;;;;;;;1.15;0.60;;;;;;;9.95;100.00;102153.31;5104237;28;20052;-83
2021/09/22 00:49:34;;;;;;;1.10;0.60;;;;;;;10.02;100.00;102159.44;5095964;28;20043;-83
2021/09/22 00:52:08;;;;;;;1.05;0.68;;;;;;;9.91;100.00;102157.56;5097398;28;20040;-83
2021/09/22 00:54:36;;;;;;;1.08;0.70;;;;;;;9.90;100.00;102166.78;5090875;28;20059;-84
2021/09/22 00:57:11;;;;;;;1.80;0.95;;;;;;;9.88;100.00;102168.94;5096017;28;20051;-82
2021/09/22 00:59:46;;;;;;;1.15;0.70;;;;;;;9.92;100.00;102167.41;5106680;28;20062;-84
2021/09/22 01:02:20;;;;;;;1.10;0.70;;;;;;;9.89;100.00;102176.03;5099088;28;20039;-83
2021/09/22 01:04:54;;;;;;;1.05;0.52;;;;;;;9.83;100.00;102166.94;5106982;28;20499;-84
2021/09/22 01:07:22;;;;;;;1.10;0.60;;;;;;;9.83;100.00;102168.81;5100713;28;20384;-84
2021/09/22 01:09:55;;;;;;;0.90;0.60;;;;;;;9.84;100.00;102175.91;5100291;28;20060;-83
2021/09/22 01:12:29;;;;;;;0.55;0.50;;;;;;;9.84;100.00;102167.75;5095339;28;20048;-84
2021/09/22 01:15:02;;;;;;;0.95;0.60;;;;;;;9.87;100.00;102168.13;5104536;28;20047;-83
2021/09/22 01:17:36;;;;;;;1.08;0.60;;;;;;;9.84;100.00;102171.28;5103655;28;20052;-84
2021/09/22 01:20:07;;;;;;;1.60;0.73;;;;;;;9.85;100.00;102169.44;5099067;28;20075;-82
2021/09/22 01:22:39;;;;;;;0.88;0.50;;;;;;;9.91;100.00;102176.63;5098325;28;20044;-83
2021/09/22 01:25:13;;;;;;;1.85;0.75;;;;;;;9.89;100.00;102173.31;5107155;28;20052;-83
2021/09/22 01:27:48;;;;;;;1.58;0.80;;;;;;;9.86;100.00;102168.38;5097032;28;20051;-83
2021/09/22 01:30:23;;;;;;;1.13;0.82;;;;;;;9.90;100.00;102176.84;5097101;28;20040;-84
2021/09/22 01:32:59;;;;;;;1.60;0.80;;;;;;;9.92;100.00;102175.56;5094428;28;20056;-83
2021/09/22 01:35:35;;;;;;;;;;;;;;;9.92;100.00;102164.69;5108580;28;20510;-83
2021/09/22 01:38:18;;;;;;;1.30;0.63;;;;;;;9.89;100.00;102173.31;5100353;28;20375;-83
2021/09/22 01:40:57;;;;;;;1.08;0.50;;;;;;;9.88;100.00;102174.38;5094712;28;20052;-83
2021/09/22 01:43:27;;;;;;;1.38;0.63;;;;;;;9.87;100.00;102175.44;5093629;28;20055;-83
2021/09/22 01:46:02;;;;;;;0.40;0.40;;;;;;;9.86;100.00;102181.97;5110364;28;20062;-84
2021/09/22 01:48:36;;;;;;;1.15;0.60;;;;;;;9.88;100.00;102171.66;5108398;28;20122;-84
2021/09/22 01:51:11;;;;;;;0.70;0.50;;;;;;;9.85;100.00;102163.97;5113235;27;20503;-84
2021/09/22 01:54:02;;;;;;;1.08;0.65;;;;;;;9.80;100.00;102161.97;5108515;28;20047;-84
2021/09/22 01:56:39;;;;;;;1.40;0.70;;;;;;;9.76;100.00;102168.94;5095976;28;20051;-83
2021/09/22 01:59:13;;;;;;;2.10;0.90;;;;;;;9.74;100.00;102162.09;5099222;28;20063;-83
2021/09/22 02:02:19;;;;;;;1.50;0.63;;;;;;;9.72;100.00;102167.75;5099579;28;20070;-84
2021/09/22 02:05:16;;;;;;;1.52;0.73;;;;;;;9.66;100.00;102166.81;5097326;28;20048;-83
2021/09/22 02:07:57;;;;;;;1.58;0.70;;;;;;;9.65;100.00;102170.63;5093336;28;20060;-83
2021/09/22 02:10:32;;;;;;;2.08;0.75;;;;;;;9.69;100.00;102165.53;5103252;28;20523;-85
2021/09/22 02:13:06;;;;;;;1.30;0.60;;;;;;;9.59;100.00;102163.41;5107184;27;20058;-83
2021/09/22 02:15:43;;;;;;;1.00;0.73;;;;;;;9.64;100.00;102168.13;5109020;28;20052;-84
2021/09/22 02:18:32;;;;;;;0.88;0.60;;;;;;;9.53;100.00;102167.09;5099926;28;20047;-83
2021/09/22 02:21:09;;;;;;;1.42;0.50;;;;;;;9.56;100.00;102163.06;5111036;28;20052;-84
2021/09/22 02:23:43;;;;;;;0.63;0.50;;;;;;;9.54;100.00;102149.69;5092272;28;20059;-84
2021/09/22 02:26:17;;;;;;;1.23;0.60;;;;;;;9.49;100.00;102158.56;5099032;28;20055;-84
2021/09/22 02:28:51;;;;;;;1.92;0.80;;;;;;;9.45;100.00;102151.13;5095811;28;20052;-83
2021/09/22 02:31:24;;;;;;;0.70;0.52;;;;;;;9.45;100.00;102157.38;5096717;28;20495;-84
2021/09/22 02:34:01;;;;;;;0.88;0.60;;;;;;;9.44;100.00;102155.72;5101010;28;20044;-84
2021/09/22 02:36:30;;;;;;;1.13;0.50;;;;;;;9.39;100.00;102150.19;5094867;28;20048;-83
2021/09/22 02:39:10;;;;;;;0.93;0.50;;;;;;;9.35;100.00;102152.53;5105020;28;20515;-83
2021/09/22 02:41:49;;;;;;;1.73;0.60;;;;;;;9.36;100.00;102151.47;5100228;28;20048;-84
2021/09/22 02:44:22;;;;;;;1.38;0.75;;;;;;;9.38;100.00;102142.25;5105404;28;20052;-83
2021/09/22 02:46:55;;;;;;;0.70;0.57;;;;;;;9.36;100.00;102143.31;5102984;28;20632;-84
2021/09/22 02:49:29;;;;;;;0.93;0.63;;;;;;;9.33;100.00;102148.38;5104915;28;20063;-84
2021/09/22 02:52:02;;;;;;;1.20;0.65;;;;;;;9.29;100.00;102141.78;5105921;28;20048;-84
2021/09/22 02:54:35;;;;;;;1.52;0.60;;;;;;;9.31;100.00;102147.81;5099752;28;20044;-83
2021/09/22 02:57:17;;;;;;;0.63;0.50;;;;;;;9.23;100.00;102151.69;5103547;28;20040;-84
2021/09/22 02:59:50;;;;;;;1.67;0.60;;;;;;;9.26;100.00;102150.41;5097972;28;20063;-84
2021/09/22 03:02:24;;;;;;;1.27;0.68;;;;;;;9.25;100.00;102152.28;5097569;28;20052;-83
2021/09/22 03:04:57;;;;;;;0.98;0.50;;;;;;;9.23;100.00;102157.13;5107239;28;20411;-84
2021/09/22 03:07:31;;;;;;;1.27;0.60;;;;;;;9.23;100.00;102156.31;5107117;28;20043;-84
2021/09/22 03:09:59;;;;;;;0.75;0.55;;;;;;;9.25;100.00;102155.00;5095185;28;20058;-83
2021/09/22 03:12:36;;;;;;;2.20;0.60;;;;;;;9.23;100.00;102162.56;5109159;28;20040;-83
2021/09/22 03:15:04;;;;;;;1.77;0.80;;;;;;;9.23;100.00;102140.00;5092868;28;20484;-84
2021/09/22 03:17:34;;;;;;;1.85;0.90;;;;;;;9.24;100.00;102156.06;5098688;28;20058;-84
2021/09/22 03:20:02;;;;;;;1.08;0.60;;;;;;;9.24;100.00;102153.34;5101554;28;20886;-84
2021/09/22 03:22:35;;;;;;;1.38;0.75;;;;;;;9.24;100.00;102147.91;5092080;28;20065;-84
2021/09/22 03:25:17;;;;;;;1.17;0.70;;;;;;;9.16;100.00;102138.22;5100746;28;20048;-83
2021/09/22 03:27:52;;;;;;;1.50;0.55;;;;;;;9.05;100.00;102116.50;5099027;28;20063;-84
2021/09/22 03:30:22;;;;;;;1.55;0.70;;;;;;;9.22;100.00;102154.66;5104258;28;20407;-84
2021/09/22 03:33:11;;;;;;;1.55;0.70;;;;;;;9.20;100.00;102141.31;5096449;28;20051;-84
2021/09/22 03:35:45;;;;;;;1.10;0.68;;;;;;;9.25;100.00;102146.03;5097691;28;20055;-82
2021/09/22 03:38:17;;;;;;;1.35;0.70;;;;;;;9.26;100.00;102150.41;5117370;27;20495;-81
2021/09/22 03:40:56;;;;;;;0.98;0.65;;;;;;;9.26;100.00;102147.69;5091373;28;20055;-83
2021/09/22 03:43:31;;;;;;;0.75;0.55;;;;;;;9.28;100.00;102146.38;5103392;28;20403;-83
2021/09/22 03:46:01;;;;;;;0.95;0.68;;;;;;;9.26;100.00;102148.50;5106257;28;20051;-83
2021/09/22 03:48:34;;;;;;;1.52;0.65;;;;;;;9.27;100.00;102142.00;5101675;28;20052;-83
2021/09/22 03:51:07;;;;;;;1.27;0.70;;;;;;;9.30;100.00;102148.88;5105463;28;20051;-84
2021/09/22 03:53:43;;;;;;;1.15;0.68;;;;;;;9.28;100.00;102143.69;5106946;28;20070;-82
2021/09/22 03:56:16;;;;;;;1.67;0.80;;;;;;;9.28;100.00;102143.69;5094521;28;20051;-83
2021/09/22 03:58:51;;;;;;;1.73;0.75;;;;;;;9.29;100.00;102137.16;5098275;28;20142;-83
2021/09/22 04:01:25;;;;;;;1.40;0.63;;;;;;;9.34;100.00;102150.06;5097715;28;20044;-84
2021/09/22 04:03:53;;;;;;;1.20;0.70;;;;;;;9.32;100.00;102141.28;5109504;28;20058;-83
2021/09/22 04:06:22;;;;;;;1.85;0.82;;;;;;;9.29;100.00;102147.22;5100714;28;20485;-83
2021/09/22 04:08:55;;;;;;;1.45;0.68;;;;;;;9.28;100.00;102154.53;5096125;28;20051;-84
2021/09/22 04:11:30;;;;;;;1.63;0.70;;;;;;;9.27;100.00;102152.88;5090647;28;20482;-84
2021/09/22 04:14:04;;;;;;;0.82;0.60;;;;;;;9.27;100.00;102158.31;5094178;28;20051;-83
2021/09/22 04:16:38;;;;;;;1.67;0.80;;;;;;;9.29;100.00;102164.31;5099641;28;20051;-83
2021/09/22 04:19:12;;;;;;;1.40;0.60;;;;;;;9.26;100.00;102167.50;5102025;28;20043;-83
2021/09/22 04:21:45;;;;;;;1.38;0.68;;;;;;;9.38;100.00;102159.38;5094399;28;20052;-83
2021/09/22 04:24:18;;;;;;;1.42;0.70;;;;;;;9.35;100.00;102154.44;5099369;28;20617;-84
2021/09/22 04:26:47;;;;;;;1.55;0.70;;;;;;;9.32;100.00;102154.88;5093565;28;20503;-85
2021/09/22 04:29:32;;;;;;;1.30;0.70;;;;;;;9.30;100.00;102159.75;5090764;28;20052;-84
2021/09/22 04:32:23;;;;;;;1.33;0.70;;;;;;;9.35;100.00;102155.25;5111457;28;20141;-84
2021/09/22 04:35:16;;;;;;;1.30;0.73;;;;;;;9.40;100.00;102157.25;5105685;28;20055;-83
2021/09/22 04:38:08;;;;;;;0.88;0.55;;;;;;;9.37;100.00;102152.28;5100099;28;20055;-83
2021/09/22 04:41:00;;;;;;;0.70;0.60;;;;;;;9.37;100.00;102146.84;5097336;28;20059;-84
2021/09/22 04:43:52;;;;;;;1.13;0.70;;;;;;;9.34;100.00;102152.78;5107473;28;20062;-83
2021/09/22 04:46:45;;;;;;;1.30;0.60;;;;;;;9.36;100.00;102153.34;5107115;28;20110;-82
2021/09/22 04:49:37;;;;;;;1.40;0.70;;;;;;;9.51;100.00;102147.44;5097000;28;20106;-84
2021/09/22 04:52:49;;;;;;;1.20;0.70;;;;;;;9.34;100.00;102156.31;5049164;28;20057;-82
2021/09/22 04:55:41;;;;;;;0.82;0.60;;;;;;;9.31;100.00;102137.75;5016399;28;20211;-84
2021/09/22 04:58:28;;;;;;;2.22;0.90;;;;;;;9.31;100.00;102143.19;5085676;28;20051;-83
2021/09/22 05:01:16;;;;;;;1.10;0.70;;;;;;;9.31;100.00;102145.09;5111006;28;20058;-84
2021/09/22 05:04:09;;;;;;;2.38;1.00;;;;;;;9.27;100.00;102147.44;5108601;28;20063;-83
2021/09/22 05:07:01;;;;;;;1.30;0.70;;;;;;;9.30;100.00;102157.03;5098977;28;20604;-83
2021/09/22 05:09:53;;;;;;;1.40;0.73;;;;;;;9.26;100.00;102155.84;5102042;28;20063;-82
2021/09/22 05:12:44;;;;;;;1.38;0.75;;;;;;;9.29;100.00;102160.78;5094921;28;20411;-83
2021/09/22 05:15:31;;;;;;;1.35;0.70;;;;;;;9.27;100.00;102165.66;5101423;28;20058;-85
2021/09/22 05:18:23;;;;;;;1.60;0.90;;;;;;;9.27;100.00;102171.91;5097154;28;20503;-83
2021/09/22 05:21:11;;;;;;;1.40;0.68;;;;;;;9.26;100.00;102175.66;5091614;28;20051;-81
2021/09/22 05:24:03;;;;;;;0.93;0.60;;;;;;;9.22;100.00;102169.03;5120735;27;20067;-84
2021/09/22 05:26:58;;;;;;;1.50;0.80;;;;;;;9.31;100.00;102175.78;5116601;28;20063;-83
2021/09/22 05:29:50;;;;;;;1.38;0.80;;;;;;;9.28;100.00;102189.00;5113146;28;20074;-83
2021/09/22 05:32:42;;;;;;;1.10;0.60;;;;;;;9.33;100.00;102184.53;5107386;28;20054;-84
2021/09/22 05:35:34;;;;;;;0.95;0.70;;;;;;;9.40;100.00;102184.41;5110025;28;20063;-84
2021/09/22 05:38:22;;;;;;;1.20;0.75;;;;;;;9.43;100.00;102186.69;5094894;28;20047;-83
2021/09/22 05:41:16;;;;;;;1.45;0.82;;;;;;;9.49;100.00;102193.88;5117618;28;20059;-82
2021/09/22 05:44:08;;;;;;;1.00;0.70;;;;;;;9.58;100.00;102194.34;5105975;28;20051;-83
2021/09/22 05:46:59;;;;;;;1.83;0.80;;;;;;;9.61;100.00;102204.78;5094292;28;20502;-83
2021/09/22 05:49:51;;;;;;;1.55;0.77;;;;;;;9.80;100.00;102201.94;5106048;28;20418;-84
2021/09/22 05:52:43;;;;;;;0.88;0.68;;;;;;;9.81;100.00;102192.72;5113810;28;20552;-84
2021/09/22 05:55:36;;;;;;;1.13;0.50;;;;;;;9.82;100.00;102197.09;5098720;28;20062;-83
2021/09/22 05:58:29;;;;;;;1.85;0.70;;;;;;;9.90;100.00;102191.25;5108397;28;20047;-84
2021/09/22 06:01:21;;;;;;;0.85;0.60;;;;;;;9.93;100.00;102196.25;5099997;28;20055;-82
2021/09/22 06:04:18;;;;;;;0.75;0.70;;;;;;;9.98;100.00;102195.53;5083828;28;20060;-84
2021/09/22 06:07:14;;;;;;;1.02;0.63;;;;;;;10.09;100.00;102199.31;5080017;28;20051;-83
2021/09/22 06:10:08;;;;;;;1.25;0.70;;;;;;;10.10;100.00;102190.91;5097529;28;20052;-84
2021/09/22 06:12:56;;;;;;;1.45;0.60;;;;;;;10.12;100.00;102196.09;5111586;28;20051;-84
2021/09/22 06:15:30;;;;;;;1.33;0.60;;;;;;;10.15;100.00;102199.19;5094160;28;20047;-85
2021/09/22 06:18:04;;;;;;;1.70;0.80;;;;;;;10.24;100.00;102188.75;5097320;28;20052;-84
2021/09/22 06:20:38;;;;;;;1.70;0.70;;;;;;;10.31;100.00;102205.75;5093285;28;20051;-84
2021/09/22 06:23:11;;;;;;;0.70;0.52;;;;;;;10.38;100.00;102201.06;5105712;28;20051;-84
2021/09/22 06:25:44;;;;;;;0.80;0.52;;;;;;;10.37;100.00;102202.13;5104649;28;20054;-83
2021/09/22 06:28:19;;;;;;;1.20;0.80;;;;;;;10.48;100.00;102196.84;5100773;28;20040;-83
2021/09/22 06:30:52;;;;;;;1.70;0.90;;;;;;;10.42;100.00;102192.41;5104459;28;20052;-83
2021/09/22 06:33:26;;;;;;;1.35;0.65;;;;;;;10.41;100.00;102197.00;5103163;28;20600;-84
2021/09/22 06:35:59;;;;;;;1.13;0.65;;;;;;;10.44;100.00;102199.25;5122453;27;20052;-84
2021/09/22 06:38:39;;;;;;;1.33;0.80;;;;;;;10.47;100.00;102209.66;5102390;28;20133;-83
2021/09/22 06:41:12;;;;;;;1.88;0.80;;;;;;;10.41;100.00;102190.75;5106085;28;20063;-85
2021/09/22 06:43:48;;;;;;;1.13;0.73;;;;;;;10.51;100.00;102194.50;5105253;28;20055;-85
2021/09/22 06:46:22;;;;;;;1.58;0.70;;;;;;;10.54;100.00;102204.88;5101310;28;20051;-84
2021/09/22 06:48:55;;;;;;;1.45;0.70;;;;;;;10.56;100.00;102207.38;5100688;28;20483;-84
2021/09/22 06:51:28;;;;;;;1.05;0.68;;;;;;;10.58;100.00;102204.41;5104622;28;20036;-84
2021/09/22 06:53:56;;;;;;;1.13;0.50;;;;;;;10.69;100.00;102201.66;5101445;28;20058;-84
2021/09/22 06:56:30;;;;;;;1.42;0.68;;;;;;;10.66;100.00;102207.59;5103153;28;20062;-84
2021/09/22 06:59:05;;;;;;;1.10;0.60;;;;;;;10.71;100.00;102213.09;5107305;28;20035;-84
2021/09/22 07:01:40;;;;;;;1.33;0.77;;;;;;;10.77;100.00;102214.06;5095460;28;20515;-83
2021/09/22 07:04:13;;;;;;;0.88;0.60;;;;;;;10.79;100.00;102220.06;5105673;28;20039;-82
2021/09/22 07:06:46;;;;;;;0.68;0.50;;;;;;;10.72;100.00;102212.03;5101198;28;20078;-80
2021/09/22 07:09:19;;;;;;;1.05;0.60;;;;;;;10.78;100.00;102212.16;5099745;28;20043;-82
2021/09/22 07:11:48;;;;;;;0.50;0.40;;;;;;;10.84;100.00;102211.16;5117240;27;21468;-81
2021/09/22 07:14:17;;;;;;;1.13;0.70;;;;;;;11.04;100.00;102213.44;5101775;28;20071;-82
2021/09/22 07:16:45;;;;;;;1.23;0.65;;;;;;;10.98;100.00;102212.53;5106877;28;20043;-82
2021/09/22 07:19:19;;;;;;;1.05;0.70;;;;;;;11.03;100.00;102211.78;5106815;28;20028;-82
2021/09/22 07:21:52;;;;;;;1.63;0.80;;;;;;;11.05;100.00;102196.84;5107384;28;20054;-81
2021/09/22 07:24:25;;;;;;;1.08;0.70;;;;;;;11.10;100.00;102198.00;5106143;28;20051;-83
2021/09/22 07:27:00;;;;;;;0.95;0.57;;;;;;;11.14;100.00;102199.16;5100631;28;20059;-85
2021/09/22 07:29:30;;;;;;;0.77;0.70;;;;;;;11.17;100.00;102191.34;5099411;28;20062;-86
2021/09/22 07:32:06;;;;;;;1.10;0.60;;;;;;;11.25;100.00;102198.25;5097190;28;20055;-84
2021/09/22 07:34:41;;;;;;;0.73;0.57;;;;;;;11.19;100.00;102196.53;5095657;27;20855;-81
2021/09/22 07:37:17;;;;;;;0.95;0.57;;;;;;;11.30;100.00;102189.38;5080064;28;20058;-82
2021/09/22 07:39:51;;;;;;;2.03;0.80;;;;;;;11.32;100.00;102188.00;5089921;28;20059;-81
2021/09/22 07:42:19;;;;;;;0.90;0.60;;;;;;;11.39;100.00;102190.56;5105596;27;20578;-81
2021/09/22 07:44:53;;;;;;;1.35;0.70;;;;;;;11.41;100.00;102199.34;5086680;28;20060;-81
2021/09/22 07:47:27;;;;;;;1.77;0.80;;;;;;;11.45;100.00;102192.31;5083464;28;20052;-82
2021/09/22 07:50:00;;;;;;;1.35;0.60;;;;;;;11.49;100.00;102193.47;5096983;28;20066;-81
2021/09/22 07:52:33;;;;;;;1.42;0.80;;;;;;;11.56;100.00;102199.59;5090366;28;20396;-81
2021/09/22 07:55:09;;;;;;;1.23;0.75;;;;;;;11.68;100.00;102193.19;5082329;28;20117;-82
2021/09/22 07:57:43;;;;;;;1.25;0.77;;;;;;;11.75;100.00;102193.84;5086050;28;20048;-80
2021/09/22 08:00:18;;;;;;;1.20;0.80;;;;;;;11.89;100.00;102191.59;5087326;28;20051;-81
2021/09/22 08:02:53;;;;;;;1.25;0.73;;;;;;;11.93;100.00;102186.47;5089238;28;20064;-81
2021/09/22 08:05:28;;;;;;;0.98;0.65;;;;;;;11.83;100.00;102182.50;5085659;28;20795;-80
2021/09/22 08:08:01;;;;;;;0.68;0.47;;;;;;;11.88;100.00;102181.78;5088118;28;20402;-80
2021/09/22 08:10:35;;;;;;;1.35;0.70;;;;;;;11.93;100.00;102181.81;5082669;28;20047;-79
2021/09/22 08:13:08;;;;;;;1.63;0.90;;;;;;;12.12;100.00;102173.38;5079953;28;20068;-79
2021/09/22 08:15:43;;;;;;;1.70;0.82;;;;;;;12.19;100.00;102177.59;5091712;28;20725;-79
2021/09/22 08:18:17;;;;;;;2.15;0.95;;;;;;;12.34;100.00;102176.09;5086986;28;20062;-80
2021/09/22 08:20:50;;;;;;;1.25;0.63;;;;;;;12.44;100.00;102162.56;5084223;28;20043;-80
2021/09/22 08:23:24;;;;;;;1.10;0.80;;;;;;;12.44;100.00;102170.75;5083146;28;20603;-79
2021/09/22 08:25:52;;;;;;;1.20;0.68;;;;;;;12.52;100.00;102172.22;5090270;28;20495;-81
2021/09/22 08:28:21;;;;;;;1.05;0.60;;;;;;;12.48;100.00;102166.44;5084146;28;20715;-81
2021/09/22 08:30:50;;;;;;;1.08;0.70;;;;;;;12.50;100.00;102160.72;5084148;28;20566;-81
2021/09/22 08:33:24;;;;;;;0.95;0.70;;;;;;;12.39;100.00;102162.53;5086220;28;20059;-81
2021/09/22 08:35:52;;;;;;;1.52;0.70;;;;;;;12.32;100.00;102154.53;5087585;28;20048;-81
2021/09/22 08:38:25;;;;;;;2.13;0.90;;;;;;;12.47;100.00;102163.94;5085331;28;20299;-83
2021/09/22 08:40:59;;;;;;;0.75;0.70;;;;;;;12.48;100.00;102166.44;5084547;28;20051;-81
2021/09/22 08:43:33;;;;;;;1.52;0.80;;;;;;;12.49;100.00;102154.44;5085816;28;20055;-81
2021/09/22 08:46:08;;;;;;;1.58;0.93;;;;;;;12.61;100.00;102167.09;5089798;28;20050;-80
2021/09/22 08:48:41;;;;;;;0.73;0.65;;;;;;;12.69;100.00;102161.19;5077971;28;20064;-84
2021/09/22 08:51:15;;;;;;;1.27;0.70;;;;;;;12.82;100.00;102165.44;5079065;28;20052;-80
2021/09/22 08:53:43;;;;;;;1.38;0.90;;;;;;;12.91;100.00;102164.69;5080222;28;20048;-81
2021/09/22 08:56:17;;;;;;;1.33;0.77;;;;;;;13.05;100.00;102150.59;5077403;28;20058;-80
2021/09/22 08:58:51;;;;;;;1.13;0.75;;;;;;;13.15;100.00;102145.22;5081543;28;20043;-81
2021/09/22 09:01:27;;;;;;;1.02;0.60;;;;;;;13.23;100.00;102152.09;5077542;28;20062;-82
2021/09/22 09:03:55;;;;;;;1.52;0.70;;;;;;;13.64;100.00;102155.13;5083665;28;20043;-81
2021/09/22 09:06:34;;;;;;;1.42;0.85;;;;;;;13.52;100.00;102149.88;5086928;28;20059;-81
2021/09/22 09:09:07;;;;;;;0.65;0.60;;;;;;;13.46;100.00;102145.47;5080903;28;20053;-80
2021/09/22 09:11:43;;;;;;;2.10;0.80;;;;;;;13.64;100.00;102151.59;5085518;28;20059;-80
2021/09/22 09:14:16;;;;;;;1.27;0.77;;;;;;;13.60;100.00;102145.81;5089884;28;20069;-81
2021/09/22 09:16:51;;;;;;;1.17;0.70;;;;;;;13.53;100.00;102137.03;5086443;28;20058;-80
2021/09/22 09:19:25;;;;;;;1.52;0.82;;;;;;;13.56;100.00;102144.69;5081700;28;20090;-80
2021/09/22 09:21:57;;;;;;;1.73;0.80;;;;;;;13.60;100.00;102137.59;5089511;28;21345;-80
2021/09/22 09:24:37;;;;;;;0.93;0.63;;;;;;;13.75;100.00;102137.72;5086956;28;20044;-81
2021/09/22 09:27:07;;;;;;;1.55;0.80;;;;;;;13.80;100.00;102139.66;5087450;27;20738;-82
2021/09/22 09:29:36;;;;;;;1.23;0.65;;;;;;;13.92;100.00;102132.03;5080601;28;20055;-81
2021/09/22 09:32:17;;;;;;;0.90;0.70;;;;;;;14.09;99.46;102134.56;5097043;28;20057;-82
2021/09/22 09:34:59;;;;;;;1.10;0.80;;;;;;;14.33;98.70;102122.31;5088260;28;20062;-82
2021/09/22 09:37:33;;;;;;;1.25;0.80;;;;;;;14.31;98.40;102128.09;5081983;28;20039;-81
2021/09/22 09:40:18;;;;;;;1.17;0.75;;;;;;;14.27;99.87;102124.22;5087001;28;20048;-82
2021/09/22 09:42:49;;;;;;;1.13;0.70;;;;;;;14.21;99.63;102120.66;5080691;28;20063;-81
2021/09/22 09:45:20;;;;;;;0.82;0.60;;;;;;;14.31;96.74;102105.34;5081135;28;20059;-81
2021/09/22 09:48:08;;;;;;;1.05;0.70;;;;;;;14.41;95.74;102106.19;5082991;28;20059;-80
2021/09/22 09:50:41;;;;;;;0.77;0.70;;;;;;;14.41;96.42;102099.91;5083751;28;20048;-83
2021/09/22 09:53:24;;;;;;;0.80;0.70;;;;;;;14.51;97.69;102105.38;5084453;28;20063;-80
2021/09/22 09:56:00;;;;;;;0.95;0.70;;;;;;;14.58;94.75;102107.84;5098251;28;20051;-81
2021/09/22 09:58:42;;;;;;;1.63;0.80;;;;;;;14.93;95.36;102109.84;5097687;28;20471;-81
2021/09/22 10:01:18;;;;;;;0.73;0.60;;;;;;;14.54;93.59;102107.59;5086640;28;20058;-81
2021/09/22 10:03:52;;;;;;;0.88;0.60;;;;;;;14.35;92.88;102107.28;5086977;28;20422;-80
2021/09/22 10:06:26;;;;;;;0.90;0.70;;;;;;;14.27;94.19;102111.34;5092104;28;20137;-81
2021/09/22 10:09:00;;;;;;;0.70;0.57;;;;;;;14.29;96.64;102103.72;5090935;28;20044;-81
2021/09/22 10:11:35;;;;;;;0.60;0.55;;;;;;;14.37;92.52;102085.91;5088807;28;20047;-81
2021/09/22 10:14:09;;;;;;;0.73;0.60;;;;;;;14.71;93.67;102087.38;5094559;28;20051;-80
2021/09/22 10:16:43;;;;;;;0.77;0.63;;;;;;;14.77;92.97;102087.06;5087553;28;20052;-80
2021/09/22 10:19:19;;;;;;;1.23;0.63;;;;;;;15.11;92.13;102077.47;5088179;28;20057;-81
2021/09/22 10:21:47;;;;;;;0.50;0.50;;;;;;;15.15;91.15;102084.06;5085125;28;20506;-81
2021/09/22 10:24:23;;;;;;;0.60;0.60;;;;;;;15.05;89.88;102082.16;5094159;28;20051;-80
2021/09/22 10:26:57;;;;;;;0.80;0.50;;;;;;;15.13;89.36;102078.84;5089499;28;20048;-80
2021/09/22 10:29:36;;;;;;;0.45;0.40;;;;;;;15.25;88.37;102075.00;5093486;28;20403;-81
2021/09/22 10:32:06;;;;;;;0.40;0.40;;;;;;;15.48;89.29;102073.56;5089363;28;20055;-81
2021/09/22 10:34:40;;;;;;;0.93;0.60;;;;;;;15.39;90.29;102072.47;5094384;28;20067;-81
2021/09/22 10:37:30;;;;;;;0.80;0.80;;;;;;;15.46;89.92;102078.50;5087105;28;20052;-80
2021/09/22 10:39:58;;;;;;;0.50;0.50;;;;;;;15.25;86.98;102058.53;5111082;27;20047;-80
2021/09/22 10:42:34;;;;;;;0.40;0.40;;;;;;;15.39;88.65;102056.03;5091291;28;20050;-79
2021/09/22 10:45:17;;;;;;;0.75;0.50;;;;;;;15.30;87.94;102064.81;5093866;28;20582;-80
2021/09/22 10:47:51;;;;;;;0.70;0.50;;;;;;;15.22;88.98;102073.63;5085933;28;20063;-80
2021/09/22 10:50:50;;;;;;;0.40;0.40;;;;;;;15.42;87.78;102071.91;5088143;28;20051;-81
2021/09/22 10:53:35;;;;;;;0.70;0.50;;;;;;;15.49;86.71;102055.97;5087175;28;20051;-80
2021/09/22 10:56:11;;;;;;;0.93;0.70;;;;;;;15.60;86.75;102063.06;5084784;28;21664;-81
2021/09/22 10:58:50;;;;;;;0.40;0.40;;;;;;;15.54;87.39;102061.47;5086709;28;20396;-81
2021/09/22 11:01:50;;;;;;;0.75;0.50;;;;;;;15.46;86.01;102062.03;5085773;28;20153;-80
2021/09/22 11:04:24;;;;;;;0.57;0.50;;;;;;;15.61;85.61;102069.41;5087644;28;20078;-79
2021/09/22 11:07:00;;;;;;;0.40;0.40;;;;;;;15.74;85.74;102062.47;5085794;28;20106;-82
2021/09/22 11:09:35;;;;;;;0.70;0.50;;;;;;;15.87;87.88;102056.41;5090947;28;20070;-80
2021/09/22 11:12:16;;;;;;;0.70;0.50;;;;;;;15.90;86.42;102061.34;5090392;28;20066;-80
2021/09/22 11:14:52;;;;;;;0.90;0.50;;;;;;;15.98;86.58;102052.50;5092182;28;20048;-79
2021/09/22 11:17:27;;;;;;;0.57;0.52;;;;;;;15.65;83.76;102056.75;5087009;28;20055;-80
2021/09/22 11:20:05;;;;;;;0.47;0.40;;;;;;;15.55;83.84;102057.63;5089235;28;20054;-79
2021/09/22 11:22:38;;;;;;;0.50;0.50;;;;;;;15.38;85.05;102057.13;5103892;27;20052;-79
2021/09/22 11:25:14;;;;;;;1.48;0.50;;;;;;;15.44;85.51;102067.00;5087708;28;20054;-79
2021/09/22 11:27:47;;;;;;;0.77;0.50;;;;;;;15.34;86.08;102059.59;5084456;28;20067;-80
2021/09/22 11:30:21;;;;;;;0.40;0.40;;;;;;;15.61;85.66;102056.47;5086829;28;20068;-77
2021/09/22 11:32:50;;;;;;;0.77;0.50;;;;;;;15.98;86.76;102063.50;5089978;28;20460;-78
2021/09/22 11:35:24;;;;;;;0.40;0.40;;;;;;;16.11;83.19;102056.53;5091126;28;20051;-79
2021/09/22 11:38:00;;;;;;;0.30;0.30;;;;;;;16.15;83.46;102041.13;5083785;28;20055;-80
2021/09/22 11:40:35;;;;;;;0.40;0.40;;;;;;;16.22;82.68;102040.81;5089032;28;20090;-80
2021/09/22 11:43:06;;;;;;;0.40;0.30;;;;;;;15.92;83.22;102039.94;5091601;28;20051;-80
2021/09/22 11:45:43;;;;;;;0.65;0.32;;;;;;;15.83;83.83;102036.13;5087373;28;20052;-80
2021/09/22 11:48:24;;;;;;;0.30;0.30;;;;;;;16.15;81.65;102032.09;5092558;28;20063;-81
2021/09/22 11:50:53;;;;;;;0.65;0.30;;;;;;;16.20;82.21;102031.22;5090086;28;20094;-79
2021/09/22 11:53:30;;;;;;;0.30;0.30;;;;;;;16.12;80.45;102027.19;5082419;28;20055;-80
2021/09/22 11:56:05;;;;;;;0.25;0.25;;;;;;;16.25;79.37;102033.94;5089571;28;20824;-80
2021/09/22 11:58:38;;;;;;;0.40;0.40;;;;;;;16.28;80.76;102028.72;5087182;28;20090;-79
2021/09/22 12:01:12;;;;;;;0.40;0.40;;;;;;;16.31;78.49;102022.66;5091455;28;20051;-80
2021/09/22 12:03:47;;;;;;;0.50;0.40;;;;;;;16.45;80.04;102014.56;5088328;28;20048;-81
2021/09/22 12:06:21;;;;;;;0.57;0.40;;;;;;;16.71;79.42;102010.78;5080033;28;20052;-79